createdAt,value
2019-01-03T00:02:38.423Z,-2.72
2019-01-03T00:08:15.358Z,-2.81
2019-01-03T00:11:03.023Z,-2.74
2019-01-03T00:13:50.812Z,-2.70
2019-01-03T00:16:38.414Z,-2.84
2019-01-03T00:19:45.389Z,-2.89
2019-01-03T00:25:41.433Z,-2.96
2019-01-03T00:28:29.033Z,-3.07
2019-01-03T00:31:16.679Z,-3.16
2019-01-03T00:34:04.279Z,-3.15
2019-01-03T00:37:11.239Z,-3.14
2019-01-03T00:39:58.835Z,-3.18
2019-01-03T00:42:46.465Z,-3.22
2019-01-03T00:45:34.069Z,-3.14
2019-01-03T00:48:21.771Z,-3.18
2019-01-03T00:53:58.475Z,-3.27
2019-01-03T00:56:46.075Z,-3.22
2019-01-03T00:59:33.787Z,-3.26
2019-01-03T01:02:21.457Z,-3.39
2019-01-03T01:05:09.310Z,-3.23
2019-01-03T01:14:19.383Z,-3.11
2019-01-03T01:17:26.272Z,-3.01
2019-01-03T01:20:33.194Z,-3.09
2019-01-03T01:28:51.413Z,-3.27
2019-01-03T01:31:39.016Z,-3.30
2019-01-03T01:34:26.681Z,-3.03
2019-01-03T01:37:14.351Z,-2.99
2019-01-03T01:42:37.293Z,-3.13
2019-01-03T01:45:45.835Z,-3.32
2019-01-03T01:48:52.763Z,-3.15
2019-01-03T01:51:59.722Z,-3.35
2019-01-03T01:54:47.321Z,-3.42
2019-01-03T01:57:35.089Z,-3.35
2019-01-03T02:00:22.758Z,-3.36
2019-01-03T02:03:10.637Z,-3.55
2019-01-03T02:06:17.580Z,-3.63
2019-01-03T02:09:05.386Z,-3.50
2019-01-03T02:15:01.411Z,-3.42
2019-01-03T02:17:49.076Z,-3.37
2019-01-03T02:20:56.150Z,-3.33
2019-01-03T02:23:43.811Z,-3.40
2019-01-03T02:26:31.516Z,-3.21
2019-01-03T02:29:19.112Z,-3.12
2019-01-03T02:32:26.180Z,-3.03
2019-01-03T02:35:33.103Z,-3.17
2019-01-03T02:38:40.097Z,-3.02
2019-01-03T02:47:31.006Z,-2.70
2019-01-03T02:53:26.694Z,-2.57
2019-01-03T02:59:03.499Z,-2.52
2019-01-03T03:01:51.094Z,-2.44
2019-01-03T03:04:38.886Z,-2.22
2019-01-03T03:07:26.481Z,-2.11
2019-01-03T03:13:28.426Z,-1.99
2019-01-03T03:16:16.136Z,-1.87
2019-01-03T03:19:03.803Z,-1.52
2019-01-03T03:22:10.770Z,-1.66
2019-01-03T03:24:58.368Z,-1.47
2019-01-03T03:27:46.000Z,-1.44
2019-01-03T03:30:52.948Z,-1.40
2019-01-03T03:33:40.643Z,-1.34
2019-01-03T03:39:17.425Z,-1.25
2019-01-03T03:42:24.352Z,-1.36
2019-01-03T03:45:12.062Z,-1.35
2019-01-03T03:54:02.562Z,-1.23
2019-01-03T03:59:44.723Z,-1.18
2019-01-03T04:02:51.676Z,-1.14
2019-01-03T04:05:39.306Z,-1.34
2019-01-03T04:08:26.975Z,-1.20
2019-01-03T04:11:33.936Z,-1.15
2019-01-03T04:14:21.682Z,-0.97
2019-01-03T04:17:09.373Z,-0.88
2019-01-03T04:23:05.414Z,-0.85
2019-01-03T04:25:53.041Z,-0.88
2019-01-03T04:29:00.097Z,-0.74
2019-01-03T04:34:37.040Z,-0.56
2019-01-03T04:37:24.635Z,-0.72
2019-01-03T04:40:12.269Z,-0.73
2019-01-03T04:42:59.868Z,-0.70
2019-01-03T04:45:47.758Z,-0.77
2019-01-03T04:52:03.125Z,-0.66
2019-01-03T04:54:50.800Z,-0.48
2019-01-03T04:57:38.443Z,-0.72
2019-01-03T05:00:46.848Z,-0.69
2019-01-03T05:03:34.571Z,-0.70
2019-01-03T05:11:51.047Z,-0.45
2019-01-03T05:14:58.005Z,-0.65
2019-01-03T05:17:45.610Z,-0.66
2019-01-03T05:20:33.393Z,-0.63
2019-01-03T05:23:20.998Z,-0.67
2019-01-03T05:26:27.958Z,-0.64
2019-01-03T05:29:34.893Z,-0.57
2019-01-03T05:32:22.527Z,-0.51
2019-01-03T05:35:10.138Z,-0.35
2019-01-03T05:40:52.927Z,0.40
2019-01-03T05:46:29.634Z,0.66
2019-01-03T05:49:17.305Z,0.44
2019-01-03T05:54:40.355Z,-0.18
2019-01-03T05:57:28.063Z,-0.27
2019-01-03T06:00:15.733Z,-0.27
2019-01-03T06:03:03.362Z,-0.38
2019-01-03T06:05:50.965Z,-0.35
2019-01-03T06:08:57.932Z,-0.26
2019-01-03T06:14:53.975Z,-0.21
2019-01-03T06:17:41.574Z,-0.24
2019-01-03T06:20:29.279Z,-0.14
2019-01-03T06:23:16.948Z,-0.08
2019-01-03T06:26:04.691Z,-0.13
2019-01-03T06:28:52.344Z,-0.09
2019-01-03T06:31:40.145Z,0.13
2019-01-03T06:34:27.743Z,0.32
2019-01-03T06:37:15.480Z,0.47
2019-01-03T06:40:03.100Z,0.62
2019-01-03T06:45:46.073Z,0.06
2019-01-03T06:48:33.736Z,0.05
2019-01-03T06:51:21.504Z,0.08
2019-01-03T06:54:09.112Z,-0.02
2019-01-03T06:56:56.839Z,0.06
2019-01-03T06:59:44.506Z,0.12
2019-01-03T07:02:32.290Z,0.09
2019-01-03T07:05:19.888Z,0.03
2019-01-03T07:08:07.521Z,0.06
2019-01-03T07:11:14.377Z,0.16
2019-01-03T07:14:02.093Z,0.17
2019-01-03T07:16:49.758Z,0.25
2019-01-03T07:22:32.164Z,0.29
2019-01-03T07:25:39.043Z,0.26
2019-01-03T07:28:45.897Z,0.43
2019-01-03T07:31:52.787Z,0.34
2019-01-03T07:34:40.380Z,0.36
2019-01-03T07:37:47.341Z,0.51
2019-01-03T07:40:35.024Z,0.44
2019-01-03T07:45:58.085Z,0.53
2019-01-03T07:49:05.050Z,0.66
2019-01-03T07:52:11.990Z,0.76
2019-01-03T07:54:59.694Z,0.67
2019-01-03T07:57:47.372Z,0.62
2019-01-03T08:00:35.069Z,0.62
2019-01-03T08:03:41.928Z,0.69
2019-01-03T08:06:29.750Z,0.93
2019-01-03T08:12:25.781Z,0.92
2019-01-03T08:15:13.381Z,0.92
2019-01-03T08:18:01.010Z,0.86
2019-01-03T08:20:48.692Z,1.19
2019-01-03T08:26:31.295Z,1.05
2019-01-03T08:29:19.030Z,1.11
2019-01-03T08:32:06.632Z,1.18
2019-01-03T08:34:54.266Z,1.23
2019-01-03T08:37:41.939Z,1.35
2019-01-03T08:40:48.910Z,1.30
2019-01-03T08:43:55.780Z,1.29
2019-01-03T08:46:43.536Z,1.31
2019-01-03T08:49:31.148Z,1.33
2019-01-03T08:52:18.813Z,1.40
2019-01-03T08:55:06.411Z,1.28
2019-01-03T08:57:54.067Z,1.41
2019-01-03T09:03:50.203Z,1.39
2019-01-03T09:06:37.804Z,1.48
2019-01-03T09:09:47.112Z,1.40
2019-01-03T09:16:02.466Z,1.48
2019-01-03T09:18:50.143Z,1.63
2019-01-03T09:21:57.198Z,1.71
2019-01-03T09:25:04.050Z,1.77
2019-01-03T09:30:50.456Z,1.94
2019-01-03T09:33:38.198Z,2.12
2019-01-03T09:36:45.159Z,2.23
2019-01-03T09:39:32.829Z,2.31
2019-01-03T09:42:20.609Z,2.30
2019-01-03T09:45:08.280Z,2.32
2019-01-03T09:50:49.013Z,2.41
2019-01-03T09:53:36.903Z,2.39
2019-01-03T09:56:24.708Z,2.45
2019-01-03T09:59:12.495Z,2.47
2019-01-03T10:02:00.168Z,2.44
2019-01-03T10:04:48.034Z,2.48
2019-01-03T10:07:35.834Z,2.48
2019-01-03T10:10:44.368Z,2.50
2019-01-03T10:13:32.165Z,2.64
2019-01-03T10:16:20.127Z,2.79
2019-01-03T10:19:07.925Z,3.06
2019-01-03T10:21:55.629Z,3.28
2019-01-03T10:24:43.426Z,3.09
2019-01-03T10:27:31.294Z,3.01
2019-01-03T10:29:59.778Z,3.18
2019-01-03T10:32:47.486Z,3.16
2019-01-03T10:35:35.287Z,3.14
2019-01-03T10:38:22.993Z,3.13
2019-01-03T10:41:10.808Z,3.17
2019-01-03T10:43:39.364Z,3.23
2019-01-03T10:46:27.086Z,3.29
2019-01-03T10:48:55.601Z,3.42
2019-01-03T10:51:43.348Z,3.50
2019-01-03T10:54:31.186Z,3.54
2019-01-03T10:56:59.664Z,3.78
2019-01-03T10:59:28.146Z,3.82
2019-01-03T11:01:56.661Z,3.66
2019-01-03T11:04:25.141Z,3.77
2019-01-03T11:07:12.998Z,3.69
2019-01-03T11:09:41.557Z,3.90
2019-01-03T11:18:17.305Z,4.06
2019-01-03T11:21:05.035Z,4.23
2019-01-03T11:26:46.905Z,3.86
2019-01-03T11:29:34.609Z,4.23
2019-01-03T11:32:03.161Z,4.36
2019-01-03T11:34:51.061Z,4.45
2019-01-03T11:37:38.651Z,4.32
2019-01-03T11:40:47.181Z,4.28
2019-01-03T11:43:34.994Z,4.39
2019-01-03T11:46:03.516Z,4.15
2019-01-03T11:48:51.211Z,4.09
2019-01-03T11:51:21.499Z,4.21
2019-01-03T11:53:50.063Z,4.22
2019-01-03T11:56:18.531Z,3.99
2019-01-03T11:58:47.129Z,4.19
2019-01-03T12:01:15.702Z,4.16
2019-01-03T12:03:44.626Z,4.05
2019-01-03T12:06:13.105Z,4.21
2019-01-03T12:08:41.728Z,4.02
2019-01-03T12:11:10.242Z,4.07
2019-01-03T12:13:38.726Z,4.20
2019-01-03T12:16:07.364Z,4.26
2019-01-03T12:18:35.913Z,4.23
2019-01-03T12:21:04.468Z,4.08
2019-01-03T12:23:32.978Z,4.13
2019-01-03T12:26:01.463Z,4.15
2019-01-03T12:28:30.131Z,4.10
2019-01-03T12:30:58.694Z,4.15
2019-01-03T12:33:27.178Z,4.03
2019-01-03T12:35:55.758Z,4.08
2019-01-03T12:38:24.243Z,4.07
2019-01-03T12:40:52.778Z,4.06
2019-01-03T12:43:21.267Z,4.05
2019-01-03T12:45:49.818Z,4.21
2019-01-03T12:48:18.406Z,4.20
2019-01-03T12:50:46.890Z,4.19
2019-01-03T12:53:15.419Z,4.31
2019-01-03T12:55:43.982Z,4.38
2019-01-03T12:58:12.530Z,4.53
2019-01-03T13:00:41.185Z,4.57
2019-01-03T13:03:09.807Z,4.52
2019-01-03T13:05:38.480Z,4.60
2019-01-03T13:08:06.962Z,4.83
2019-01-03T13:10:35.513Z,4.78
2019-01-03T13:13:04.123Z,4.77
2019-01-03T13:15:32.731Z,4.70
2019-01-03T13:18:01.250Z,4.73
2019-01-03T13:20:29.734Z,4.42
2019-01-03T13:22:58.288Z,4.42
2019-01-03T13:25:26.823Z,4.45
2019-01-03T13:27:55.326Z,4.47
2019-01-03T13:30:24.029Z,4.62
2019-01-03T13:32:52.515Z,4.72
2019-01-03T13:35:22.143Z,4.51
2019-01-03T13:37:50.726Z,4.59
2019-01-03T13:40:19.234Z,4.80
2019-01-03T13:42:47.888Z,4.71
2019-01-03T13:45:16.369Z,4.56
2019-01-03T13:47:44.934Z,4.70
2019-01-03T13:50:13.585Z,4.59
2019-01-03T13:52:42.140Z,4.54
2019-01-03T13:55:10.743Z,4.56
2019-01-03T13:57:39.218Z,4.77
2019-01-03T14:00:09.667Z,4.79
2019-01-03T14:02:38.250Z,4.95
2019-01-03T14:05:06.888Z,4.93
2019-01-03T14:07:35.654Z,4.95
2019-01-03T14:10:05.674Z,4.71
2019-01-03T14:12:34.226Z,4.96
2019-01-03T14:15:02.883Z,4.62
2019-01-03T14:17:31.504Z,4.81
2019-01-03T14:20:00.030Z,4.55
2019-01-03T14:22:28.496Z,4.84
2019-01-03T14:24:56.976Z,4.86
2019-01-03T14:27:25.512Z,4.70
2019-01-03T14:29:54.001Z,4.76
2019-01-03T14:32:22.528Z,4.66
2019-01-03T14:34:51.010Z,4.63
2019-01-03T14:37:19.784Z,4.83
2019-01-03T14:39:48.435Z,4.84
2019-01-03T14:42:16.913Z,4.94
2019-01-03T14:44:45.525Z,4.84
2019-01-03T14:47:14.136Z,4.92
2019-01-03T14:49:42.801Z,4.63
2019-01-03T14:52:11.281Z,4.66
2019-01-03T14:54:39.842Z,4.69
2019-01-03T14:57:08.458Z,4.90
2019-01-03T14:59:37.000Z,4.85
2019-01-03T15:02:05.734Z,4.80
2019-01-03T15:04:34.268Z,4.86
2019-01-03T15:07:02.759Z,4.78
2019-01-03T15:09:31.345Z,4.90
2019-01-03T15:11:59.901Z,4.77
2019-01-03T15:14:28.420Z,4.66
2019-01-03T15:16:57.674Z,4.84
2019-01-03T15:19:28.918Z,4.75
2019-01-03T15:21:57.544Z,4.99
2019-01-03T15:24:26.094Z,4.69
2019-01-03T15:26:54.760Z,4.78
2019-01-03T15:29:23.384Z,4.63
2019-01-03T15:31:52.149Z,4.68
2019-01-03T15:34:21.171Z,4.64
2019-01-03T15:36:52.973Z,4.60
2019-01-03T15:39:23.581Z,4.81
2019-01-03T15:41:52.936Z,4.76
2019-01-03T15:44:22.095Z,4.83
2019-01-03T15:46:52.768Z,4.60
2019-01-03T15:49:21.438Z,4.53
2019-01-03T15:51:50.061Z,4.51
2019-01-03T15:54:19.016Z,4.52
2019-01-03T15:56:47.889Z,4.56
2019-01-03T15:59:16.439Z,4.35
2019-01-03T16:01:45.022Z,4.53
2019-01-03T16:04:13.545Z,4.62
2019-01-03T16:06:42.173Z,4.65
2019-01-03T16:09:10.681Z,4.38
2019-01-03T16:11:39.427Z,4.32
2019-01-03T16:14:07.985Z,4.23
2019-01-03T16:16:37.652Z,4.12
2019-01-03T16:19:06.285Z,4.13
2019-01-03T16:21:34.942Z,4.03
2019-01-03T16:24:04.314Z,4.07
2019-01-03T16:26:32.926Z,3.92
2019-01-03T16:29:01.650Z,3.84
2019-01-03T16:31:30.192Z,3.83
2019-01-03T16:33:58.858Z,3.75
2019-01-03T16:36:27.401Z,3.63
2019-01-03T16:38:56.156Z,3.62
2019-01-03T16:41:24.771Z,3.56
2019-01-03T16:43:53.315Z,3.58
2019-01-03T16:46:21.892Z,3.63
2019-01-03T16:48:50.846Z,3.51
2019-01-03T16:51:19.731Z,3.54
2019-01-03T16:53:48.344Z,3.54
2019-01-03T16:56:16.840Z,3.44
2019-01-03T16:58:45.432Z,3.44
2019-01-03T17:01:14.052Z,3.46
2019-01-03T17:03:45.047Z,3.42
2019-01-03T17:06:13.883Z,3.33
2019-01-03T17:08:42.731Z,3.34
2019-01-03T17:11:13.378Z,3.39
2019-01-03T17:13:43.444Z,3.43
2019-01-03T17:16:12.304Z,3.37
2019-01-03T17:18:42.090Z,3.37
2019-01-03T17:21:10.735Z,3.33
2019-01-03T17:23:39.326Z,3.40
2019-01-03T17:26:07.878Z,3.35
2019-01-03T17:28:36.632Z,3.27
2019-01-03T17:31:05.255Z,3.44
2019-01-03T17:33:33.839Z,3.33
2019-01-03T17:36:02.555Z,3.44
2019-01-03T17:38:31.040Z,3.71
2019-01-03T17:40:59.708Z,3.88
2019-01-03T17:43:28.355Z,4.15
2019-01-03T17:45:56.847Z,4.25
2019-01-03T17:48:25.368Z,4.10
2019-01-03T17:50:53.922Z,4.41
2019-01-03T17:53:22.577Z,4.28
2019-01-03T17:55:51.198Z,4.21
2019-01-03T17:58:19.890Z,4.08
2019-01-03T18:00:48.571Z,4.04
2019-01-03T18:03:17.248Z,3.98
2019-01-03T18:05:45.949Z,3.96
2019-01-03T18:08:14.510Z,4.03
2019-01-03T18:10:43.134Z,4.01
2019-01-03T18:13:11.663Z,3.86
2019-01-03T18:15:40.188Z,3.89
2019-01-03T18:18:08.811Z,3.84
2019-01-03T18:20:37.291Z,3.86
2019-01-03T18:23:05.843Z,4.04
2019-01-03T18:25:34.387Z,4.02
2019-01-03T18:28:02.873Z,4.04
2019-01-03T18:30:31.458Z,4.03
2019-01-03T18:33:00.085Z,3.93
2019-01-03T18:35:28.640Z,3.93
2019-01-03T18:37:57.182Z,3.82
2019-01-03T18:40:25.815Z,3.76
2019-01-03T18:42:54.419Z,3.75
2019-01-03T18:45:23.045Z,3.79
2019-01-03T18:47:51.612Z,3.67
2019-01-03T18:50:20.233Z,3.68
2019-01-03T18:52:48.881Z,3.66
2019-01-03T18:55:17.459Z,3.66
2019-01-03T18:57:46.088Z,3.66
2019-01-03T19:00:14.683Z,3.73
2019-01-03T19:02:43.303Z,3.75
2019-01-03T19:05:11.973Z,3.76
2019-01-03T19:07:40.549Z,3.65
2019-01-03T19:10:10.549Z,3.63
2019-01-03T19:12:39.206Z,3.58
2019-01-03T19:15:09.549Z,3.68
2019-01-03T19:17:38.210Z,3.58
2019-01-03T19:20:09.460Z,3.59
2019-01-03T19:22:38.162Z,3.55
2019-01-03T19:25:14.913Z,3.56
2019-01-03T19:27:43.643Z,3.50
2019-01-03T19:30:13.055Z,3.59
2019-01-03T19:32:41.753Z,3.73
2019-01-03T19:35:11.728Z,3.68
2019-01-03T19:37:40.352Z,4.12
2019-01-03T19:40:11.534Z,4.14
2019-01-03T19:42:40.881Z,4.05
2019-01-03T19:45:11.774Z,4.10
2019-01-03T19:47:40.528Z,4.05
2019-01-03T19:50:15.227Z,4.27
2019-01-03T19:52:44.827Z,4.51
2019-01-03T19:55:13.489Z,4.08
2019-01-03T19:57:42.192Z,4.18
2019-01-03T20:00:13.730Z,4.33
2019-01-03T20:02:45.633Z,3.97
2019-01-03T20:05:14.496Z,3.96
2019-01-03T20:07:43.223Z,3.99
2019-01-03T20:10:13.191Z,3.97
2019-01-03T20:12:43.337Z,3.80
2019-01-03T20:15:14.101Z,3.83
2019-01-03T20:17:42.876Z,3.66
2019-01-03T20:20:11.888Z,3.69
2019-01-03T20:22:40.934Z,3.61
2019-01-03T20:25:10.664Z,3.31
2019-01-03T20:27:39.431Z,3.36
2019-01-03T20:30:10.802Z,3.21
2019-01-03T20:32:39.783Z,3.19
2019-01-03T20:35:08.973Z,3.17
2019-01-03T20:37:37.757Z,3.25
2019-01-03T20:40:09.091Z,3.34
2019-01-03T20:42:38.050Z,3.20
2019-01-03T20:45:11.884Z,3.36
2019-01-03T20:47:40.802Z,3.52
2019-01-03T20:50:12.473Z,3.52
2019-01-03T20:52:41.342Z,3.51
2019-01-03T20:55:10.118Z,3.51
2019-01-03T20:57:38.928Z,3.38
2019-01-03T21:00:13.339Z,3.39
2019-01-03T21:02:42.133Z,3.36
2019-01-03T21:05:10.916Z,3.41
2019-01-03T21:07:40.179Z,3.36
2019-01-03T21:10:10.938Z,3.42
2019-01-03T21:12:39.745Z,3.53
2019-01-03T21:15:11.784Z,3.66
2019-01-03T21:17:43.238Z,3.82
2019-01-03T21:20:14.214Z,3.81
2019-01-03T21:22:42.945Z,3.88
2019-01-03T21:25:12.162Z,3.97
2019-01-03T21:27:43.598Z,3.85
2019-01-03T21:30:15.942Z,3.95
2019-01-03T21:32:44.689Z,3.92
2019-01-03T21:35:13.388Z,3.90
2019-01-03T21:37:42.286Z,3.89
2019-01-03T21:40:11.924Z,3.92
2019-01-03T21:42:40.668Z,3.83
2019-01-03T21:45:11.141Z,3.87
2019-01-03T21:47:40.086Z,3.83
2019-01-03T21:50:10.924Z,3.69
2019-01-03T21:52:39.644Z,3.46
2019-01-03T21:55:08.394Z,3.59
2019-01-03T21:57:37.013Z,3.22
2019-01-03T22:00:08.709Z,3.52
2019-01-03T22:02:37.254Z,3.53
2019-01-03T22:05:06.468Z,3.28
2019-01-03T22:07:35.047Z,3.13
2019-01-03T22:10:04.668Z,3.01
2019-01-03T22:12:33.222Z,2.87
2019-01-03T22:15:01.765Z,2.74
2019-01-03T22:17:30.445Z,2.63
2019-01-03T22:19:58.974Z,2.40
2019-01-03T22:22:27.649Z,2.64
2019-01-03T22:24:56.411Z,2.66
2019-01-03T22:27:25.026Z,2.68
2019-01-03T22:29:53.767Z,2.72
2019-01-03T22:32:22.347Z,2.58
2019-01-03T22:34:50.901Z,2.61
2019-01-03T22:37:19.500Z,2.33
2019-01-03T22:39:48.148Z,2.23
2019-01-03T22:42:16.831Z,1.97
2019-01-03T22:44:45.381Z,1.99
2019-01-03T22:47:13.936Z,1.75
2019-01-03T22:49:42.525Z,1.62
2019-01-03T22:52:11.145Z,1.61
2019-01-03T22:54:39.912Z,1.47
2019-01-03T22:57:08.465Z,1.69
2019-01-03T22:59:37.606Z,1.59
2019-01-03T23:02:07.852Z,1.45
2019-01-03T23:04:36.504Z,1.45
2019-01-03T23:07:05.412Z,1.26
2019-01-03T23:09:33.976Z,1.26
2019-01-03T23:12:02.688Z,1.39
2019-01-03T23:14:31.347Z,1.61
2019-01-03T23:16:59.927Z,1.53
2019-01-03T23:19:28.764Z,1.51
2019-01-03T23:21:57.319Z,1.58
2019-01-03T23:24:25.895Z,1.69
2019-01-03T23:26:54.416Z,1.68
2019-01-03T23:29:22.978Z,1.70
2019-01-03T23:31:53.796Z,2.06
2019-01-03T23:34:28.041Z,1.87
2019-01-03T23:36:53.003Z,1.70
2019-01-03T23:39:21.527Z,1.70
2019-01-03T23:41:50.087Z,1.75
2019-01-03T23:44:18.762Z,1.80
2019-01-03T23:46:47.320Z,1.77
2019-01-03T23:49:16.015Z,1.70
2019-01-03T23:51:44.676Z,1.80
2019-01-03T23:54:13.240Z,1.65
2019-01-03T23:56:41.888Z,1.69
2019-01-03T23:59:10.513Z,1.72
